createdAt,value
2018-07-07T00:00:38.019Z,14.50
2018-07-07T00:03:08.280Z,14.40
2018-07-07T00:05:38.308Z,13.40
2018-07-07T00:08:08.113Z,13.70
2018-07-07T00:10:37.899Z,14.13
2018-07-07T00:13:08.343Z,14.40
2018-07-07T00:15:38.225Z,14.93
2018-07-07T00:18:08.472Z,14.23
2018-07-07T00:20:38.796Z,14.50
2018-07-07T00:23:09.737Z,15.33
2018-07-07T00:25:39.906Z,14.47
2018-07-07T00:28:10.158Z,15.30
2018-07-07T00:30:40.376Z,14.37
2018-07-07T00:33:10.611Z,15.57
2018-07-07T00:35:40.684Z,15.30
2018-07-07T00:38:11.012Z,15.00
2018-07-07T00:40:41.344Z,15.43
2018-07-07T00:43:11.596Z,16.30
2018-07-07T00:45:41.473Z,15.30
2018-07-07T00:48:11.852Z,17.03
2018-07-07T00:50:41.913Z,16.20
2018-07-07T00:53:11.829Z,17.33
2018-07-07T00:55:41.827Z,18.57
2018-07-07T00:58:11.768Z,18.80
2018-07-07T01:00:50.904Z,20.13
2018-07-07T01:03:21.613Z,18.50
2018-07-07T01:05:52.585Z,18.93
2018-07-07T01:08:22.389Z,20.80
2018-07-07T01:10:52.972Z,21.33
2018-07-07T01:13:23.307Z,22.00
2018-07-07T01:15:53.367Z,22.73
2018-07-07T01:18:23.367Z,22.23
2018-07-07T01:20:53.417Z,25.33
2018-07-07T01:23:23.755Z,24.73
2018-07-07T01:25:53.694Z,24.00
2018-07-07T01:28:23.640Z,22.73
2018-07-07T01:30:54.040Z,23.00
2018-07-07T01:33:24.467Z,22.87
2018-07-07T01:35:54.424Z,22.77
2018-07-07T01:38:24.329Z,22.30
2018-07-07T01:40:54.310Z,22.73
2018-07-07T01:43:24.265Z,23.00
2018-07-07T01:45:54.248Z,22.27
2018-07-07T01:48:24.248Z,23.60
2018-07-07T01:50:54.547Z,21.10
2018-07-07T01:53:24.803Z,21.33
2018-07-07T01:55:54.915Z,22.07
2018-07-07T01:58:25.126Z,21.17
2018-07-07T02:00:55.085Z,21.00
2018-07-07T02:03:25.122Z,20.53
2018-07-07T02:05:55.044Z,22.20
2018-07-07T02:08:24.771Z,21.53
2018-07-07T02:10:54.610Z,22.73
2018-07-07T02:13:24.739Z,22.63
2018-07-07T02:15:54.989Z,22.37
2018-07-07T02:18:25.026Z,21.87
2018-07-07T02:20:54.961Z,20.47
2018-07-07T02:23:24.903Z,20.97
2018-07-07T02:25:55.153Z,21.27
2018-07-07T02:28:25.163Z,21.87
2018-07-07T02:30:55.664Z,21.60
2018-07-07T02:33:25.710Z,22.80
2018-07-07T02:35:55.701Z,20.70
2018-07-07T02:38:25.717Z,21.20
2018-07-07T02:40:55.628Z,23.10
2018-07-07T02:43:25.922Z,21.40
2018-07-07T02:45:55.879Z,21.23
2018-07-07T02:48:26.567Z,21.93
2018-07-07T02:50:56.487Z,21.10
2018-07-07T02:53:26.870Z,22.00
2018-07-07T02:55:56.723Z,21.17
2018-07-07T02:58:26.821Z,20.57
2018-07-07T03:00:56.756Z,21.43
2018-07-07T03:03:27.370Z,20.67
2018-07-07T03:05:57.296Z,19.97
2018-07-07T03:08:27.045Z,20.23
2018-07-07T03:10:57.105Z,20.53
2018-07-07T03:13:27.174Z,19.30
2018-07-07T03:15:57.161Z,19.57
2018-07-07T03:18:27.489Z,18.67
2018-07-07T03:20:58.397Z,18.90
2018-07-07T03:23:28.392Z,19.23
2018-07-07T03:25:58.506Z,18.63
2018-07-07T03:28:28.823Z,17.30
2018-07-07T03:30:59.995Z,14.33
2018-07-07T03:33:30.389Z,12.73
2018-07-07T03:36:00.509Z,12.43
2018-07-07T03:38:30.582Z,12.97
2018-07-07T03:41:00.411Z,13.10
2018-07-07T03:43:30.534Z,12.40
2018-07-07T03:46:00.596Z,11.80
2018-07-07T03:48:30.589Z,11.47
2018-07-07T03:51:00.560Z,11.13
2018-07-07T03:53:30.607Z,10.27
2018-07-07T03:56:00.577Z,10.43
2018-07-07T03:58:30.557Z,10.40
2018-07-07T04:01:00.844Z,9.40
2018-07-07T04:03:31.115Z,9.90
2018-07-07T04:06:01.524Z,10.03
2018-07-07T04:08:31.458Z,9.43
2018-07-07T04:11:01.567Z,8.80
2018-07-07T04:13:31.487Z,9.43
2018-07-07T04:16:01.501Z,9.60
2018-07-07T04:18:34.629Z,9.63
2018-07-07T04:21:05.827Z,9.03
2018-07-07T04:23:36.141Z,9.03
2018-07-07T04:26:06.054Z,10.50
2018-07-07T04:28:36.175Z,10.93
2018-07-07T04:31:06.384Z,10.67
2018-07-07T04:33:36.585Z,11.47
2018-07-07T04:36:06.570Z,12.00
2018-07-07T04:38:36.520Z,12.40
2018-07-07T04:41:06.419Z,12.90
2018-07-07T04:43:36.882Z,13.13
2018-07-07T04:46:07.073Z,12.90
2018-07-07T04:48:37.089Z,15.03
2018-07-07T04:51:07.116Z,13.40
2018-07-07T04:53:37.157Z,13.97
2018-07-07T04:56:07.263Z,18.03
2018-07-07T04:58:37.137Z,15.53
2018-07-07T05:01:07.243Z,14.10
2018-07-07T05:03:37.349Z,13.17
2018-07-07T05:06:07.401Z,15.20
2018-07-07T05:08:37.190Z,13.47
2018-07-07T05:11:07.569Z,12.97
2018-07-07T05:13:37.852Z,12.87
2018-07-07T05:16:07.974Z,12.63
2018-07-07T05:18:38.284Z,14.03
2018-07-07T05:21:08.401Z,14.33
2018-07-07T05:23:38.237Z,12.53
2018-07-07T05:26:08.663Z,12.50
2018-07-07T05:28:38.790Z,12.10
2018-07-07T05:31:09.151Z,12.27
2018-07-07T05:33:39.063Z,12.80
2018-07-07T05:36:09.240Z,12.33
2018-07-07T05:38:39.287Z,12.73
2018-07-07T05:41:09.585Z,11.53
2018-07-07T05:43:39.561Z,11.40
2018-07-07T05:46:09.820Z,12.30
2018-07-07T05:48:40.962Z,12.97
2018-07-07T05:51:11.116Z,13.73
2018-07-07T05:53:41.039Z,13.77
2018-07-07T05:56:11.169Z,16.03
2018-07-07T05:58:41.093Z,14.80
2018-07-07T06:01:11.152Z,15.00
2018-07-07T06:03:41.170Z,14.37
2018-07-07T06:06:11.156Z,15.67
2018-07-07T06:08:41.039Z,15.10
2018-07-07T06:11:10.965Z,14.30
2018-07-07T06:13:41.315Z,13.70
2018-07-07T06:16:11.467Z,16.13
2018-07-07T06:18:41.516Z,16.20
2018-07-07T06:21:11.577Z,15.50
2018-07-07T06:23:42.188Z,14.83
2018-07-07T06:26:13.010Z,14.33
2018-07-07T06:28:43.155Z,15.30
2018-07-07T06:31:13.569Z,14.90
2018-07-07T06:33:44.093Z,14.30
2018-07-07T06:36:15.779Z,13.63
2018-07-07T06:38:45.709Z,13.47
2018-07-07T06:41:15.617Z,11.93
2018-07-07T06:43:45.543Z,12.33
2018-07-07T06:46:15.541Z,12.03
2018-07-07T06:48:45.595Z,12.47
2018-07-07T06:51:15.537Z,12.77
2018-07-07T06:53:45.560Z,8.93
2018-07-07T06:56:15.474Z,10.70
2018-07-07T06:58:45.492Z,9.83
2018-07-07T07:01:15.486Z,11.53
2018-07-07T07:03:45.588Z,8.90
2018-07-07T07:06:15.625Z,8.30
2018-07-07T07:08:45.391Z,8.83
2018-07-07T07:11:15.251Z,8.30
2018-07-07T07:13:45.206Z,8.37
2018-07-07T07:16:15.296Z,8.17
2018-07-07T07:18:45.615Z,8.43
2018-07-07T07:21:15.813Z,10.33
2018-07-07T07:23:45.876Z,9.73
2018-07-07T07:26:15.943Z,7.40
2018-07-07T07:28:45.947Z,7.83
2018-07-07T07:31:16.268Z,7.30
2018-07-07T07:33:46.483Z,7.40
2018-07-07T07:36:21.345Z,7.77
2018-07-07T07:38:51.713Z,7.57
2018-07-07T07:41:21.671Z,9.07
2018-07-07T07:43:51.677Z,8.73
2018-07-07T07:46:21.673Z,8.27
2018-07-07T07:48:51.724Z,7.43
2018-07-07T07:51:21.764Z,7.90
2018-07-07T07:53:51.748Z,7.27
2018-07-07T07:56:21.783Z,8.03
2018-07-07T07:58:51.915Z,7.67
2018-07-07T08:01:22.139Z,7.80
2018-07-07T08:03:52.044Z,8.17
2018-07-07T08:06:22.509Z,7.80
2018-07-07T08:08:52.204Z,7.43
2018-07-07T08:11:22.457Z,8.00
2018-07-07T08:13:52.437Z,7.80
2018-07-07T08:16:22.355Z,7.43
2018-07-07T08:18:52.374Z,7.47
2018-07-07T08:21:22.329Z,6.73
2018-07-07T08:23:52.304Z,7.00
2018-07-07T08:26:22.237Z,7.57
2018-07-07T08:28:52.113Z,7.20
2018-07-07T08:31:22.404Z,8.17
2018-07-07T08:33:52.305Z,7.60
2018-07-07T08:36:22.372Z,8.07
2018-07-07T08:38:52.713Z,7.93
2018-07-07T08:41:22.894Z,7.20
2018-07-07T08:43:52.985Z,7.03
2018-07-07T08:46:23.168Z,6.80
2018-07-07T08:48:53.183Z,7.10
2018-07-07T08:51:23.461Z,6.57
2018-07-07T08:53:53.375Z,6.70
2018-07-07T08:56:23.498Z,6.80
2018-07-07T08:58:53.796Z,6.30
2018-07-07T09:01:23.631Z,6.13
2018-07-07T09:03:53.933Z,6.27
2018-07-07T09:06:23.844Z,5.87
2018-07-07T09:08:53.728Z,5.83
2018-07-07T09:11:23.786Z,6.20
2018-07-07T09:13:53.708Z,5.77
2018-07-07T09:16:23.947Z,6.40
2018-07-07T09:18:53.979Z,5.77
2018-07-07T09:21:23.966Z,5.50
2018-07-07T09:23:54.147Z,6.20
2018-07-07T09:26:24.080Z,5.57
2018-07-07T09:28:54.185Z,5.73
2018-07-07T09:31:24.328Z,6.00
2018-07-07T09:33:54.495Z,6.17
2018-07-07T09:36:24.383Z,6.07
2018-07-07T09:38:55.052Z,6.07
2018-07-07T09:41:25.053Z,7.73
2018-07-07T09:43:55.259Z,7.37
2018-07-07T09:46:25.208Z,7.53
2018-07-07T09:48:55.323Z,7.53
2018-07-07T09:51:25.193Z,7.23
2018-07-07T09:53:55.911Z,8.07
2018-07-07T09:56:25.955Z,6.87
2018-07-07T09:58:56.153Z,6.80
2018-07-07T10:01:26.030Z,7.60
2018-07-07T10:03:55.937Z,6.17
2018-07-07T10:06:25.805Z,5.53
2018-07-07T10:08:55.549Z,5.63
2018-07-07T10:11:25.830Z,5.20
2018-07-07T10:13:55.732Z,5.40
2018-07-07T10:16:26.060Z,6.33
2018-07-07T10:18:56.424Z,5.93
2018-07-07T10:21:26.738Z,5.03
2018-07-07T10:23:56.977Z,5.00
2018-07-07T10:26:27.326Z,4.87
2018-07-07T10:28:57.209Z,5.43
2018-07-07T10:31:28.652Z,4.83
2018-07-07T10:33:58.535Z,5.10
2018-07-07T10:36:28.957Z,5.50
2018-07-07T10:38:59.152Z,5.20
2018-07-07T10:41:29.538Z,4.97
2018-07-07T10:43:59.529Z,4.60
2018-07-07T10:46:29.483Z,4.67
2018-07-07T10:48:59.449Z,4.57
2018-07-07T10:51:29.677Z,4.80
2018-07-07T10:53:59.639Z,4.30
2018-07-07T10:56:29.989Z,4.23
2018-07-07T10:59:00.002Z,4.57
2018-07-07T11:01:30.240Z,4.53
2018-07-07T11:04:00.248Z,4.60
2018-07-07T11:06:30.427Z,4.70
2018-07-07T11:09:00.191Z,4.43
2018-07-07T11:11:30.478Z,4.67
2018-07-07T11:14:00.394Z,5.40
2018-07-07T11:16:30.388Z,4.83
2018-07-07T11:19:00.512Z,4.33
2018-07-07T11:21:30.507Z,4.10
2018-07-07T11:24:00.486Z,4.33
2018-07-07T11:26:30.756Z,4.43
2018-07-07T11:29:01.124Z,4.50
2018-07-07T11:31:32.076Z,5.10
2018-07-07T11:34:02.147Z,4.87
2018-07-07T11:36:32.568Z,4.57
2018-07-07T11:39:03.059Z,4.63
2018-07-07T11:41:33.480Z,4.67
2018-07-07T11:44:03.716Z,4.83
2018-07-07T11:46:34.145Z,4.27
2018-07-07T11:49:04.467Z,4.87
2018-07-07T11:51:34.365Z,4.37
2018-07-07T11:54:04.293Z,4.73
2018-07-07T11:56:34.596Z,4.50
2018-07-07T11:59:04.596Z,4.20
2018-07-07T12:01:34.698Z,4.20
2018-07-07T12:04:04.605Z,3.90
2018-07-07T12:06:34.867Z,4.03
2018-07-07T12:09:05.435Z,3.87
2018-07-07T12:11:35.478Z,3.50
2018-07-07T12:14:05.389Z,3.23
2018-07-07T12:16:35.885Z,3.90
2018-07-07T12:19:05.848Z,3.33
2018-07-07T12:21:35.741Z,3.70
2018-07-07T12:24:05.762Z,3.43
2018-07-07T12:26:35.785Z,3.93
2018-07-07T12:29:06.137Z,3.97
2018-07-07T12:31:36.649Z,3.57
2018-07-07T12:34:06.881Z,3.70
2018-07-07T12:36:36.911Z,4.30
2018-07-07T12:39:07.613Z,3.80
2018-07-07T12:41:37.584Z,4.17
2018-07-07T12:44:07.728Z,4.13
2018-07-07T12:46:37.722Z,4.03
2018-07-07T12:49:08.196Z,4.07
2018-07-07T12:51:38.461Z,3.93
2018-07-07T12:54:08.791Z,4.30
2018-07-07T12:56:38.667Z,3.97
2018-07-07T12:59:08.720Z,3.90
2018-07-07T13:01:39.556Z,4.20
2018-07-07T13:04:09.466Z,3.83
2018-07-07T13:06:39.571Z,4.20
2018-07-07T13:09:09.431Z,4.53
2018-07-07T13:11:39.355Z,4.60
2018-07-07T13:14:09.398Z,4.30
2018-07-07T13:16:39.545Z,3.90
2018-07-07T13:19:09.635Z,3.77
2018-07-07T13:21:40.585Z,4.03
2018-07-07T13:24:10.479Z,4.10
2018-07-07T13:26:40.721Z,4.40
2018-07-07T13:29:10.768Z,4.63
2018-07-07T13:31:40.695Z,4.27
2018-07-07T13:34:10.675Z,4.50
2018-07-07T13:36:40.672Z,4.57
2018-07-07T13:39:10.636Z,3.90
2018-07-07T13:41:40.714Z,4.77
2018-07-07T13:44:10.967Z,4.40
2018-07-07T13:46:41.200Z,4.50
2018-07-07T13:49:11.453Z,4.20
2018-07-07T13:51:41.855Z,4.30
2018-07-07T13:54:11.825Z,4.10
2018-07-07T13:56:41.765Z,4.03
2018-07-07T13:59:12.037Z,4.30
2018-07-07T14:01:41.982Z,4.10
2018-07-07T14:04:11.853Z,4.27
2018-07-07T14:06:41.896Z,4.23
2018-07-07T14:09:11.661Z,4.70
2018-07-07T14:11:41.711Z,4.43
2018-07-07T14:14:11.615Z,4.23
2018-07-07T14:16:41.953Z,4.60
2018-07-07T14:19:12.238Z,4.40
2018-07-07T14:21:43.284Z,4.97
2018-07-07T14:24:13.376Z,4.17
2018-07-07T14:26:43.825Z,3.83
2018-07-07T14:29:13.779Z,4.10
2018-07-07T14:31:44.160Z,4.00
2018-07-07T14:34:14.164Z,5.40
2018-07-07T14:36:44.137Z,4.47
2018-07-07T14:39:14.138Z,4.73
2018-07-07T14:41:44.112Z,4.37
2018-07-07T14:44:13.823Z,3.93
2018-07-07T14:46:44.172Z,4.47
2018-07-07T14:49:14.398Z,4.40
2018-07-07T14:51:44.580Z,4.13
2018-07-07T14:54:14.799Z,4.27
2018-07-07T14:56:45.484Z,4.50
2018-07-07T14:59:16.107Z,3.97
2018-07-07T15:01:46.609Z,4.40
2018-07-07T15:04:17.161Z,3.83
2018-07-07T15:06:47.891Z,3.97
2018-07-07T15:09:18.023Z,4.23
2018-07-07T15:11:48.104Z,3.70
2018-07-07T15:14:18.112Z,3.77
2018-07-07T15:16:48.213Z,4.20
2018-07-07T15:19:18.509Z,4.70
2018-07-07T15:21:48.933Z,3.80
2018-07-07T15:24:18.842Z,4.50
2018-07-07T15:26:48.845Z,4.90
2018-07-07T15:29:19.037Z,4.13
2018-07-07T15:31:49.247Z,4.23
2018-07-07T15:34:19.497Z,3.87
2018-07-07T15:36:49.425Z,4.40
2018-07-07T15:39:19.653Z,4.27
2018-07-07T15:41:49.684Z,4.43
2018-07-07T15:44:19.879Z,4.60
2018-07-07T15:46:49.931Z,4.87
2018-07-07T15:49:20.247Z,4.40
2018-07-07T15:51:50.320Z,4.37
2018-07-07T15:54:20.411Z,5.20
2018-07-07T15:56:50.515Z,4.70
2018-07-07T15:59:20.493Z,5.13
2018-07-07T16:01:50.636Z,4.90
2018-07-07T16:04:20.676Z,5.73
2018-07-07T16:06:51.007Z,5.27
2018-07-07T16:09:20.727Z,5.67
2018-07-07T16:11:50.943Z,5.97
2018-07-07T16:14:21.010Z,5.50
2018-07-07T16:16:50.912Z,6.33
2018-07-07T16:19:21.244Z,5.87
2018-07-07T16:21:51.518Z,6.47
2018-07-07T16:24:21.391Z,5.70
2018-07-07T16:26:51.731Z,5.80
2018-07-07T16:29:21.745Z,5.60
2018-07-07T16:31:52.216Z,5.40
2018-07-07T16:34:22.508Z,5.30
2018-07-07T16:36:52.880Z,6.03
2018-07-07T16:39:23.169Z,5.73
2018-07-07T16:41:53.226Z,5.93
2018-07-07T16:44:23.274Z,6.03
2018-07-07T16:46:53.875Z,6.00
2018-07-07T16:49:23.751Z,6.03
2018-07-07T16:51:54.121Z,6.47
2018-07-07T16:54:24.793Z,5.77
2018-07-07T16:56:54.827Z,6.03
2018-07-07T16:59:25.019Z,5.53
2018-07-07T17:01:54.985Z,6.27
2018-07-07T17:04:24.916Z,5.57
2018-07-07T17:07:00.061Z,6.30
2018-07-07T17:09:29.827Z,5.70
2018-07-07T17:12:00.181Z,6.43
2018-07-07T17:14:30.335Z,6.50
2018-07-07T17:17:00.540Z,6.60
2018-07-07T17:19:30.460Z,7.93
2018-07-07T17:22:00.848Z,5.97
2018-07-07T17:24:32.027Z,5.47
2018-07-07T17:27:02.044Z,7.40
2018-07-07T17:29:31.986Z,7.27
2018-07-07T17:32:02.678Z,6.23
2018-07-07T17:34:32.584Z,6.03
2018-07-07T17:37:02.693Z,7.57
2018-07-07T17:39:32.646Z,6.10
2018-07-07T17:42:02.720Z,8.60
2018-07-07T17:44:32.829Z,7.10
2018-07-07T17:47:03.366Z,6.57
2018-07-07T17:49:33.740Z,6.77
2018-07-07T17:52:03.820Z,6.80
2018-07-07T17:54:34.320Z,7.20
2018-07-07T17:57:04.674Z,6.63
2018-07-07T17:59:35.028Z,6.87
2018-07-07T18:02:05.051Z,8.57
2018-07-07T18:04:35.717Z,7.10
2018-07-07T18:07:12.207Z,7.17
2018-07-07T18:09:42.001Z,6.97
2018-07-07T18:12:11.976Z,7.10
2018-07-07T18:14:41.931Z,7.13
2018-07-07T18:17:11.876Z,7.37
2018-07-07T18:19:42.182Z,7.03
2018-07-07T18:22:12.193Z,6.20
2018-07-07T18:24:42.469Z,6.93
2018-07-07T18:27:12.386Z,7.30
2018-07-07T18:29:42.277Z,7.10
2018-07-07T18:32:12.573Z,6.53
2018-07-07T18:34:42.975Z,7.57
2018-07-07T18:37:12.981Z,6.70
2018-07-07T18:39:42.913Z,6.73
2018-07-07T18:42:13.489Z,6.87
2018-07-07T18:44:43.686Z,7.40
2018-07-07T18:47:14.812Z,8.17
2018-07-07T18:49:45.153Z,6.87
2018-07-07T18:52:15.364Z,6.67
2018-07-07T18:54:45.322Z,8.87
2018-07-07T18:57:15.621Z,8.03
2018-07-07T18:59:45.956Z,7.77
2018-07-07T19:02:16.402Z,8.37
2018-07-07T19:04:46.299Z,8.60
2018-07-07T19:07:16.390Z,7.57
2018-07-07T19:09:46.345Z,9.23
2018-07-07T19:12:16.533Z,8.13
2018-07-07T19:14:46.465Z,8.00
2018-07-07T19:17:16.834Z,7.80
2018-07-07T19:19:46.660Z,8.37
2018-07-07T19:22:21.824Z,8.43
2018-07-07T19:24:57.112Z,9.00
2018-07-07T19:27:27.799Z,8.17
2018-07-07T19:29:58.073Z,8.10
2018-07-07T19:32:33.873Z,8.00
2018-07-07T19:35:09.127Z,7.43
2018-07-07T19:37:40.184Z,7.33
2018-07-07T19:40:11.391Z,7.70
2018-07-07T19:42:41.769Z,7.27
2018-07-07T19:45:11.807Z,8.73
2018-07-07T19:47:41.898Z,7.47
2018-07-07T19:50:11.832Z,7.30
2018-07-07T19:52:41.880Z,7.57
2018-07-07T19:55:11.796Z,8.10
2018-07-07T19:57:42.189Z,6.80
2018-07-07T20:00:12.897Z,6.40
2018-07-07T20:02:43.301Z,6.43
2018-07-07T20:05:13.473Z,6.10
2018-07-07T20:07:43.481Z,6.03
2018-07-07T20:10:13.751Z,6.30
2018-07-07T20:12:43.866Z,5.93
2018-07-07T20:15:13.764Z,5.50
2018-07-07T20:17:54.555Z,5.30
2018-07-07T20:20:36.052Z,5.10
2018-07-07T20:23:07.296Z,5.10
2018-07-07T20:25:37.750Z,5.20
2018-07-07T20:28:13.046Z,4.97
2018-07-07T20:30:42.988Z,5.10
2018-07-07T20:33:12.981Z,5.33
2018-07-07T20:35:42.860Z,5.03
2018-07-07T20:38:12.943Z,5.07
2018-07-07T20:40:43.137Z,5.20
2018-07-07T20:43:13.378Z,5.03
2018-07-07T20:45:43.637Z,4.53
2018-07-07T20:48:13.855Z,4.63
2018-07-07T20:50:43.809Z,5.13
2018-07-07T20:53:13.943Z,4.57
2018-07-07T20:55:44.032Z,4.57
2018-07-07T20:58:14.228Z,5.13
2018-07-07T21:00:44.089Z,5.00
2018-07-07T21:03:14.206Z,5.10
2018-07-07T21:05:44.066Z,4.70
2018-07-07T21:08:14.230Z,5.77
2018-07-07T21:10:44.161Z,4.70
2018-07-07T21:13:14.463Z,4.83
2018-07-07T21:15:44.525Z,5.27
2018-07-07T21:18:14.708Z,4.80
2018-07-07T21:20:44.563Z,4.63
2018-07-07T21:23:14.609Z,4.83
2018-07-07T21:25:44.440Z,4.87
2018-07-07T21:28:15.368Z,4.50
2018-07-07T21:30:45.591Z,4.17
2018-07-07T21:33:15.862Z,4.57
2018-07-07T21:35:46.464Z,4.83
2018-07-07T21:38:16.678Z,5.13
2018-07-07T21:40:47.075Z,4.53
2018-07-07T21:43:17.289Z,4.60
2018-07-07T21:45:47.932Z,4.73
2018-07-07T21:48:18.436Z,4.60
2018-07-07T21:50:48.561Z,4.93
2018-07-07T21:53:18.957Z,4.57
2018-07-07T21:55:49.279Z,5.07
2018-07-07T21:58:24.323Z,4.87
2018-07-07T22:01:11.483Z,4.63
2018-07-07T22:03:46.852Z,4.60
2018-07-07T22:06:21.915Z,4.03
2018-07-07T22:08:51.733Z,4.73
2018-07-07T22:11:22.152Z,4.90
2018-07-07T22:13:52.216Z,4.83
2018-07-07T22:16:22.667Z,4.80
2018-07-07T22:18:53.096Z,4.30
2018-07-07T22:21:53.597Z,4.60
2018-07-07T22:24:23.879Z,5.33
2018-07-07T22:26:57.809Z,4.80
2018-07-07T22:29:28.097Z,5.10
2018-07-07T22:31:59.505Z,4.50
2018-07-07T22:34:34.881Z,4.80
2018-07-07T22:37:04.764Z,5.07
2018-07-07T22:39:35.991Z,5.10
2018-07-07T22:42:07.321Z,4.77
2018-07-07T22:44:38.372Z,4.73
2018-07-07T22:47:08.660Z,5.20
2018-07-07T22:49:38.741Z,4.80
2018-07-07T22:52:09.832Z,4.67
2018-07-07T22:54:39.815Z,5.00
2018-07-07T22:57:09.868Z,5.00
2018-07-07T22:59:40.627Z,4.60
2018-07-07T23:02:10.726Z,4.87
2018-07-07T23:04:40.825Z,5.23
2018-07-07T23:07:10.663Z,4.97
2018-07-07T23:09:40.701Z,5.10
2018-07-07T23:12:10.872Z,5.17
2018-07-07T23:14:40.735Z,4.77
2018-07-07T23:17:11.318Z,5.10
2018-07-07T23:19:41.295Z,5.10
2018-07-07T23:22:11.663Z,5.00
2018-07-07T23:24:41.824Z,5.17
2018-07-07T23:27:11.841Z,5.07
2018-07-07T23:29:41.734Z,4.97
2018-07-07T23:32:11.777Z,5.33
2018-07-07T23:34:41.785Z,5.30
2018-07-07T23:37:11.858Z,5.57
2018-07-07T23:39:41.858Z,4.90
2018-07-07T23:42:12.147Z,5.30
2018-07-07T23:44:42.398Z,5.20
2018-07-07T23:47:12.432Z,5.40
2018-07-07T23:49:42.850Z,5.10
2018-07-07T23:52:12.751Z,5.07
2018-07-07T23:54:42.941Z,4.83
2018-07-07T23:57:12.870Z,5.10
2018-07-07T23:59:42.847Z,5.07
